createdAt,value
2023-05-02T00:01:28.915Z,10.52
2023-05-02T00:03:56.950Z,10.49
2023-05-02T00:06:24.996Z,10.49
2023-05-02T00:08:52.866Z,10.50
2023-05-02T00:11:21.486Z,10.52
2023-05-02T00:13:49.769Z,10.53
2023-05-02T00:16:18.398Z,10.54
2023-05-02T00:18:47.344Z,10.54
2023-05-02T00:21:15.012Z,10.54
2023-05-02T00:23:43.419Z,10.53
2023-05-02T00:26:11.252Z,10.51
2023-05-02T00:28:40.453Z,10.46
2023-05-02T00:31:08.227Z,10.44
2023-05-02T00:33:36.267Z,10.41
2023-05-02T00:36:04.025Z,10.38
2023-05-02T00:38:31.936Z,10.35
2023-05-02T00:40:59.780Z,10.31
2023-05-02T00:43:30.853Z,10.28
2023-05-02T00:45:58.869Z,10.22
2023-05-02T00:48:29.214Z,10.18
2023-05-02T00:50:57.627Z,10.13
2023-05-02T00:53:25.854Z,10.07
2023-05-02T00:55:54.484Z,10.03
2023-05-02T00:58:22.636Z,9.98
2023-05-02T01:00:50.488Z,9.96
2023-05-02T01:03:37.165Z,9.96
2023-05-02T01:06:24.117Z,9.97
2023-05-02T01:08:56.062Z,9.97
2023-05-02T01:11:31.301Z,9.96
2023-05-02T01:14:00.199Z,9.95
2023-05-02T01:16:28.740Z,9.95
2023-05-02T01:18:58.148Z,9.93
2023-05-02T01:21:28.201Z,9.93
2023-05-02T01:23:56.469Z,9.93
2023-05-02T01:26:32.956Z,9.91
2023-05-02T01:29:02.035Z,9.91
2023-05-02T01:31:31.966Z,9.92
2023-05-02T01:34:01.112Z,9.88
2023-05-02T01:36:31.387Z,9.85
2023-05-02T01:39:00.773Z,9.82
2023-05-02T01:41:30.260Z,9.81
2023-05-02T01:43:58.967Z,9.81
2023-05-02T01:46:28.629Z,9.82
2023-05-02T01:48:58.158Z,9.82
2023-05-02T01:51:30.748Z,9.82
2023-05-02T01:54:04.558Z,9.86
2023-05-02T01:56:34.158Z,9.88
2023-05-02T01:59:09.091Z,9.90
2023-05-02T02:01:38.113Z,9.91
2023-05-02T02:04:06.823Z,9.93
2023-05-02T02:06:35.379Z,9.95
2023-05-02T02:09:04.075Z,9.97
2023-05-02T02:11:35.996Z,9.97
2023-05-02T02:14:08.686Z,9.98
2023-05-02T02:16:38.429Z,9.99
2023-05-02T02:19:08.610Z,10.01
2023-05-02T02:21:38.591Z,10.02
2023-05-02T02:24:07.925Z,10.03
2023-05-02T02:26:36.742Z,10.03
2023-05-02T02:29:04.798Z,10.01
2023-05-02T02:31:36.170Z,9.98
2023-05-02T02:34:04.717Z,9.95
2023-05-02T02:36:57.642Z,9.94
2023-05-02T02:39:36.093Z,9.95
2023-05-02T02:42:15.978Z,9.97
2023-05-02T02:44:55.079Z,9.99
2023-05-02T02:47:42.222Z,10.03
2023-05-02T02:50:29.486Z,10.04
2023-05-02T02:53:09.851Z,10.03
2023-05-02T02:55:46.297Z,10.02
2023-05-02T02:58:20.832Z,10.01
2023-05-02T03:00:49.853Z,10.00
2023-05-02T03:03:19.020Z,10.01
2023-05-02T03:05:47.463Z,10.02
2023-05-02T03:08:15.491Z,10.03
2023-05-02T03:10:43.559Z,10.04
2023-05-02T03:13:12.535Z,10.04
2023-05-02T03:15:52.436Z,10.05
2023-05-02T03:18:20.674Z,10.06
2023-05-02T03:20:48.511Z,10.06
2023-05-02T03:23:16.592Z,10.07
2023-05-02T03:25:44.566Z,10.06
2023-05-02T03:28:15.098Z,10.04
2023-05-02T03:30:42.867Z,10.00
2023-05-02T03:33:11.292Z,9.97
2023-05-02T03:35:39.716Z,9.93
2023-05-02T03:38:07.887Z,9.92
2023-05-02T03:40:35.748Z,9.90
2023-05-02T03:43:03.459Z,9.90
2023-05-02T03:45:31.607Z,9.88
2023-05-02T03:47:59.834Z,9.88
2023-05-02T03:50:28.022Z,9.89
2023-05-02T03:52:55.802Z,9.90
2023-05-02T03:55:23.665Z,9.91
2023-05-02T03:57:51.566Z,9.92
2023-05-02T04:00:19.735Z,9.93
2023-05-02T04:02:48.081Z,9.94
2023-05-02T04:05:16.362Z,9.94
2023-05-02T04:07:44.432Z,9.93
2023-05-02T04:10:16.808Z,9.92
2023-05-02T04:12:44.673Z,9.90
2023-05-02T04:15:12.666Z,9.88
2023-05-02T04:17:40.593Z,9.86
2023-05-02T04:20:10.033Z,9.85
2023-05-02T04:22:39.735Z,9.84
2023-05-02T04:25:09.124Z,9.84
2023-05-02T04:27:37.552Z,9.82
2023-05-02T04:30:07.554Z,9.80
2023-05-02T04:32:35.450Z,9.78
2023-05-02T04:35:04.487Z,9.75
2023-05-02T04:37:32.656Z,9.73
2023-05-02T04:40:01.176Z,9.71
2023-05-02T04:42:29.478Z,9.71
2023-05-02T04:44:57.533Z,9.72
2023-05-02T04:47:25.714Z,9.72
2023-05-02T04:49:53.916Z,9.72
2023-05-02T04:52:21.705Z,9.71
2023-05-02T04:54:49.364Z,9.69
2023-05-02T04:57:17.415Z,9.67
2023-05-02T04:59:45.580Z,9.65
2023-05-02T05:02:13.412Z,9.66
2023-05-02T05:04:41.508Z,9.66
2023-05-02T05:07:10.310Z,9.67
2023-05-02T05:09:38.064Z,9.70
2023-05-02T05:12:05.820Z,9.70
2023-05-02T05:14:34.315Z,9.71
2023-05-02T05:17:03.545Z,9.71
2023-05-02T05:19:32.003Z,9.72
2023-05-02T05:21:59.963Z,9.73
2023-05-02T05:24:27.723Z,9.74
2023-05-02T05:26:57.132Z,9.77
2023-05-02T05:29:25.099Z,9.81
2023-05-02T05:31:53.410Z,9.86
2023-05-02T05:34:21.340Z,9.91
2023-05-02T05:36:49.541Z,9.95
2023-05-02T05:39:17.243Z,9.98
2023-05-02T05:41:45.061Z,10.01
2023-05-02T05:44:12.808Z,10.04
2023-05-02T05:46:40.908Z,10.11
2023-05-02T05:49:08.947Z,10.17
2023-05-02T05:51:37.219Z,10.21
2023-05-02T05:54:05.228Z,10.26
2023-05-02T05:56:33.360Z,10.30
2023-05-02T05:59:01.739Z,10.32
2023-05-02T06:01:29.919Z,10.37
2023-05-02T06:03:58.187Z,10.41
2023-05-02T06:06:27.760Z,10.43
2023-05-02T06:08:55.465Z,10.45
2023-05-02T06:11:26.396Z,10.43
2023-05-02T06:13:54.160Z,10.43
2023-05-02T06:16:22.352Z,10.45
2023-05-02T06:18:51.064Z,10.46
2023-05-02T06:21:19.383Z,10.48
2023-05-02T06:23:47.234Z,10.51
2023-05-02T06:26:15.327Z,10.54
2023-05-02T06:28:43.262Z,10.56
2023-05-02T06:31:11.247Z,10.59
2023-05-02T06:33:39.128Z,10.62
2023-05-02T06:36:06.996Z,10.60
2023-05-02T06:38:36.422Z,10.57
2023-05-02T06:41:04.400Z,10.58
2023-05-02T06:43:33.153Z,10.63
2023-05-02T06:46:01.160Z,10.70
2023-05-02T06:48:29.297Z,10.79
2023-05-02T06:50:57.048Z,10.86
2023-05-02T06:53:24.990Z,10.96
2023-05-02T06:55:53.710Z,11.09
2023-05-02T06:58:21.575Z,11.16
2023-05-02T07:00:50.502Z,11.22
2023-05-02T07:03:18.428Z,11.38
2023-05-02T07:05:47.596Z,11.55
2023-05-02T07:08:15.927Z,11.85
2023-05-02T07:10:43.992Z,11.98
2023-05-02T07:13:12.055Z,12.06
2023-05-02T07:15:39.819Z,12.03
2023-05-02T07:18:07.766Z,11.99
2023-05-02T07:20:35.599Z,11.97
2023-05-02T07:23:03.302Z,12.01
2023-05-02T07:25:33.803Z,12.00
2023-05-02T07:28:03.847Z,12.00
2023-05-02T07:30:33.063Z,12.09
2023-05-02T07:33:01.612Z,12.12
2023-05-02T07:35:29.402Z,12.11
2023-05-02T07:37:59.797Z,12.12
2023-05-02T07:40:28.604Z,12.14
2023-05-02T07:42:58.347Z,12.18
2023-05-02T07:45:26.010Z,12.23
2023-05-02T07:47:53.879Z,12.21
2023-05-02T07:50:22.637Z,12.19
2023-05-02T07:52:50.946Z,12.28
2023-05-02T07:55:18.773Z,12.39
2023-05-02T07:57:46.847Z,12.38
2023-05-02T08:00:15.159Z,12.34
2023-05-02T08:02:43.282Z,12.33
2023-05-02T08:05:13.198Z,12.30
2023-05-02T08:07:41.602Z,12.22
2023-05-02T08:10:10.545Z,12.21
2023-05-02T08:12:42.008Z,12.27
2023-05-02T08:15:12.190Z,12.35
2023-05-02T08:17:40.517Z,12.42
2023-05-02T08:20:11.968Z,12.45
2023-05-02T08:22:39.728Z,12.45
2023-05-02T08:25:07.718Z,12.51
2023-05-02T08:27:36.056Z,12.52
2023-05-02T08:30:07.804Z,12.49
2023-05-02T08:32:37.232Z,12.43
2023-05-02T08:35:05.519Z,12.43
2023-05-02T08:37:33.508Z,12.48
2023-05-02T08:40:01.471Z,12.48
2023-05-02T08:42:33.124Z,12.45
2023-05-02T08:45:02.649Z,12.48
2023-05-02T08:47:31.949Z,12.53
2023-05-02T08:50:00.632Z,12.55
2023-05-02T08:52:29.904Z,12.55
2023-05-02T08:54:58.822Z,12.56
2023-05-02T08:57:29.986Z,12.53
2023-05-02T08:59:58.315Z,12.58
2023-05-02T09:02:53.587Z,12.60
2023-05-02T09:05:23.944Z,12.58
2023-05-02T09:07:52.307Z,12.57
2023-05-02T09:10:21.928Z,12.61
2023-05-02T09:12:49.662Z,12.65
2023-05-02T09:15:20.753Z,12.71
2023-05-02T09:17:49.444Z,12.81
2023-05-02T09:20:17.694Z,12.90
2023-05-02T09:22:49.552Z,12.99
2023-05-02T09:25:17.650Z,13.09
2023-05-02T09:27:52.082Z,13.24
2023-05-02T09:30:22.033Z,13.27
2023-05-02T09:32:55.226Z,13.29
2023-05-02T09:35:26.185Z,13.29
2023-05-02T09:37:54.868Z,13.32
2023-05-02T09:40:23.501Z,13.38
2023-05-02T09:42:51.730Z,13.49
2023-05-02T09:45:20.202Z,13.66
2023-05-02T09:47:48.373Z,13.83
2023-05-02T09:50:32.992Z,13.81
2023-05-02T09:53:03.141Z,13.77
2023-05-02T09:55:37.531Z,13.67
2023-05-02T09:58:21.077Z,13.49
2023-05-02T10:00:55.948Z,13.39
2023-05-02T10:03:29.300Z,13.47
2023-05-02T10:06:04.173Z,13.61
2023-05-02T10:08:35.781Z,13.80
2023-05-02T10:11:11.033Z,14.04
2023-05-02T10:13:45.132Z,14.13
2023-05-02T10:16:20.546Z,14.20
2023-05-02T10:18:53.154Z,14.26
2023-05-02T10:21:29.762Z,14.33
2023-05-02T10:24:03.848Z,14.40
2023-05-02T10:26:35.914Z,14.55
2023-05-02T10:31:59.134Z,14.68
2023-05-02T10:34:39.515Z,14.66
2023-05-02T10:37:08.486Z,14.50
2023-05-02T10:39:36.816Z,14.37
2023-05-02T10:42:28.851Z,14.25
2023-05-02T10:45:03.492Z,14.24
2023-05-02T10:47:36.593Z,14.30
2023-05-02T10:50:09.943Z,14.40
2023-05-02T10:52:41.658Z,14.56
2023-05-02T10:55:18.516Z,14.74
2023-05-02T10:57:59.692Z,14.85
2023-05-02T11:00:35.181Z,14.93
2023-05-02T11:03:56.534Z,14.92
2023-05-02T11:06:35.923Z,14.82
2023-05-02T11:09:25.451Z,14.81
2023-05-02T11:12:10.005Z,14.86
2023-05-02T11:14:39.306Z,14.88
2023-05-02T11:20:27.669Z,14.89
2023-05-02T11:23:02.718Z,14.83
2023-05-02T11:25:54.338Z,14.77
2023-05-02T11:28:38.686Z,14.76
2023-05-02T11:31:10.089Z,14.78
2023-05-02T11:33:38.323Z,14.80
2023-05-02T11:36:14.089Z,14.95
2023-05-02T11:38:43.165Z,15.15
2023-05-02T11:41:12.871Z,15.26
2023-05-02T11:47:18.952Z,15.27
2023-05-02T11:50:31.689Z,15.28
2023-05-02T11:53:01.083Z,15.36
2023-05-02T11:55:29.353Z,15.35
2023-05-02T11:58:00.597Z,15.27
2023-05-02T12:00:29.906Z,15.20
2023-05-02T12:03:01.244Z,15.21
2023-05-02T12:05:35.686Z,15.22
2023-05-02T12:08:09.181Z,15.18
2023-05-02T12:10:59.478Z,15.15
2023-05-02T12:13:50.533Z,15.12
2023-05-02T12:16:38.992Z,15.17
2023-05-02T12:19:07.685Z,15.23
2023-05-02T12:21:36.501Z,15.28
2023-05-02T12:24:09.396Z,15.28
2023-05-02T12:26:41.384Z,15.29
2023-05-02T12:29:10.644Z,15.30
2023-05-02T12:32:01.340Z,15.37
2023-05-02T12:34:40.569Z,15.40
2023-05-02T12:37:16.121Z,15.54
2023-05-02T12:39:56.130Z,15.73
2023-05-02T12:42:33.331Z,15.82
2023-05-02T12:45:02.666Z,15.91
2023-05-02T12:51:00.797Z,16.16
2023-05-02T12:53:44.613Z,16.23
2023-05-02T12:56:20.657Z,16.30
2023-05-02T12:58:50.223Z,16.39
2023-05-02T13:01:21.323Z,16.46
2023-05-02T13:03:51.718Z,16.56
2023-05-02T13:06:22.743Z,16.65
2023-05-02T13:08:52.470Z,16.67
2023-05-02T13:11:23.741Z,16.69
2023-05-02T13:13:55.394Z,16.69
2023-05-02T13:16:25.437Z,16.74
2023-05-02T13:19:00.637Z,16.83
2023-05-02T13:21:34.129Z,16.89
2023-05-02T13:24:15.275Z,16.97
2023-05-02T13:26:43.694Z,16.91
2023-05-02T13:29:20.364Z,16.86
2023-05-02T13:31:49.117Z,16.86
2023-05-02T13:34:18.482Z,16.89
2023-05-02T13:36:48.482Z,16.97
2023-05-02T13:39:19.829Z,16.97
2023-05-02T13:42:01.801Z,16.89
2023-05-02T13:44:32.710Z,16.81
2023-05-02T13:47:01.987Z,16.74
2023-05-02T13:49:33.106Z,16.76
2023-05-02T13:52:39.082Z,16.84
2023-05-02T14:02:58.988Z,17.13
2023-05-02T14:05:31.111Z,17.16
2023-05-02T14:08:00.664Z,17.11
2023-05-02T14:10:32.321Z,17.11
2023-05-02T14:13:01.375Z,17.12
2023-05-02T14:15:33.838Z,17.08
2023-05-02T14:18:17.228Z,17.03
2023-05-02T14:20:51.187Z,16.93
2023-05-02T14:23:22.952Z,16.87
2023-05-02T14:26:05.104Z,16.89
2023-05-02T14:28:34.527Z,16.91
2023-05-02T14:31:05.606Z,16.98
2023-05-02T14:33:36.062Z,17.05
2023-05-02T14:36:08.224Z,17.11
2023-05-02T14:38:37.224Z,17.11
2023-05-02T14:41:06.979Z,17.13
2023-05-02T14:43:36.851Z,17.19
2023-05-02T14:46:08.814Z,17.26
2023-05-02T14:48:37.703Z,17.28
2023-05-02T14:51:10.734Z,17.39
2023-05-02T14:53:48.805Z,17.37
2023-05-02T14:57:23.296Z,17.38
2023-05-02T15:08:08.347Z,17.47
2023-05-02T15:14:27.231Z,17.97
2023-05-02T15:20:25.579Z,17.84
2023-05-02T15:23:16.826Z,17.86
2023-05-02T15:26:10.786Z,17.73
2023-05-02T15:32:53.506Z,17.66
2023-05-02T15:35:56.825Z,17.70
2023-05-02T15:38:30.965Z,17.67
2023-05-02T15:41:15.554Z,17.62
2023-05-02T15:43:49.054Z,17.58
2023-05-02T15:50:10.944Z,17.36
2023-05-02T15:52:48.792Z,17.32
2023-05-02T15:55:21.594Z,17.28
2023-05-02T15:57:57.355Z,17.20
2023-05-02T16:00:28.785Z,17.08
2023-05-02T16:03:03.802Z,16.95
2023-05-02T16:05:33.114Z,16.78
2023-05-02T16:08:01.392Z,16.63
2023-05-02T16:11:02.042Z,16.53
2023-05-02T16:13:30.306Z,16.46
2023-05-02T16:16:22.489Z,16.42
2023-05-02T16:18:52.127Z,16.28
2023-05-02T16:21:27.471Z,16.23
2023-05-02T16:23:56.307Z,16.17
2023-05-02T16:26:25.218Z,16.10
2023-05-02T16:28:57.076Z,15.99
2023-05-02T16:31:29.949Z,15.86
2023-05-02T16:33:59.010Z,15.80
2023-05-02T16:36:36.382Z,15.72
2023-05-02T16:39:04.898Z,15.67
2023-05-02T16:41:35.092Z,15.58
2023-05-02T16:44:07.975Z,15.52
2023-05-02T16:52:50.225Z,15.46
2023-05-02T16:55:28.804Z,15.50
2023-05-02T17:02:28.324Z,15.76
2023-05-02T17:05:09.649Z,15.87
2023-05-02T17:11:37.068Z,15.83
2023-05-02T17:14:05.620Z,15.74
2023-05-02T17:16:34.252Z,15.70
2023-05-02T17:19:11.757Z,15.72
2023-05-02T17:22:10.755Z,15.76
2023-05-02T17:25:38.469Z,15.82
2023-05-02T17:28:11.223Z,15.91
2023-05-02T17:30:48.593Z,16.04
2023-05-02T17:33:36.856Z,16.14
2023-05-02T17:39:09.372Z,16.14
2023-05-02T17:41:49.624Z,16.06
2023-05-02T17:44:18.660Z,15.94
2023-05-02T17:46:48.293Z,15.86
2023-05-02T17:49:22.068Z,15.79
2023-05-02T17:51:51.017Z,15.77
2023-05-02T17:54:23.896Z,15.77
2023-05-02T17:57:11.142Z,15.60
2023-05-02T17:59:59.944Z,15.47
2023-05-02T18:02:40.462Z,15.42
2023-05-02T18:05:16.122Z,15.38
2023-05-02T18:07:44.937Z,15.39
2023-05-02T18:10:13.607Z,15.38
2023-05-02T18:13:08.526Z,15.29
2023-05-02T18:18:47.428Z,15.05
2023-05-02T18:21:43.153Z,14.94
2023-05-02T18:24:19.136Z,14.80
2023-05-02T18:27:02.238Z,14.68
2023-05-02T18:29:36.224Z,14.62
2023-05-02T18:36:28.312Z,14.36
2023-05-02T18:39:00.980Z,14.18
2023-05-02T18:41:53.887Z,14.09
2023-05-02T18:44:25.710Z,13.98
2023-05-02T18:46:54.118Z,13.86
2023-05-02T18:49:28.816Z,13.75
2023-05-02T18:52:00.914Z,13.63
2023-05-02T18:54:43.043Z,13.53
2023-05-02T18:57:28.115Z,13.45
2023-05-02T19:00:00.080Z,13.35
2023-05-02T19:02:38.709Z,13.27
2023-05-02T19:05:09.970Z,13.18
2023-05-02T19:07:42.004Z,13.11
2023-05-02T19:10:11.491Z,13.02
2023-05-02T19:13:07.944Z,12.93
2023-05-02T19:15:47.332Z,12.83
2023-05-02T19:18:46.905Z,12.72
2023-05-02T19:21:16.892Z,12.63
2023-05-02T19:27:19.173Z,12.41
2023-05-02T19:29:54.745Z,12.30
2023-05-02T19:32:33.502Z,12.21
2023-05-02T19:35:27.176Z,12.13
2023-05-02T19:37:56.403Z,12.05
2023-05-02T19:41:13.674Z,11.98
2023-05-02T19:44:03.934Z,11.92
2023-05-02T19:50:23.428Z,11.75
2023-05-02T19:56:07.894Z,11.54
2023-05-02T20:00:18.472Z,11.45
2023-05-02T20:01:54.537Z,11.36
2023-05-02T20:04:27.572Z,11.29
2023-05-02T20:07:11.753Z,11.21
2023-05-02T20:10:29.301Z,11.14
2023-05-02T20:12:45.534Z,11.03
2023-05-02T20:15:18.573Z,10.98
2023-05-02T20:25:42.867Z,10.76
2023-05-02T20:31:29.633Z,10.67
2023-05-02T20:34:01.313Z,10.61
2023-05-02T20:36:30.138Z,10.55
2023-05-02T20:39:52.409Z,10.49
2023-05-02T20:42:44.246Z,10.41
2023-05-02T20:45:17.511Z,10.36
2023-05-02T20:48:06.823Z,10.33
2023-05-02T20:58:38.728Z,10.23
2023-05-02T21:01:37.743Z,10.20
2023-05-02T21:04:13.865Z,10.17
2023-05-02T21:45:24.920Z,9.27
2023-05-02T21:59:21.900Z,9.16
2023-05-02T22:02:02.596Z,9.10
2023-05-02T22:04:33.711Z,9.07
2023-05-02T22:07:06.399Z,9.03
2023-05-02T22:09:41.127Z,8.99
2023-05-02T22:12:11.441Z,8.96
2023-05-02T22:14:46.270Z,8.91
2023-05-02T22:17:22.936Z,8.86
2023-05-02T22:19:54.312Z,8.82
2023-05-02T22:22:23.065Z,8.81
2023-05-02T22:24:52.172Z,8.81
2023-05-02T22:27:21.203Z,8.82
2023-05-02T22:29:57.837Z,8.80
2023-05-02T22:32:37.402Z,8.76
2023-05-02T22:35:07.712Z,8.72
2023-05-02T22:41:44.717Z,8.66
2023-05-02T22:44:16.385Z,8.60
2023-05-02T22:47:15.168Z,8.54
2023-05-02T22:50:17.317Z,8.49
2023-05-02T22:53:30.450Z,8.42
2023-05-02T22:56:39.880Z,8.39
2023-05-02T22:59:17.502Z,8.38
2023-05-02T23:02:18.423Z,8.35
2023-05-02T23:08:33.435Z,8.25
2023-05-02T23:11:30.998Z,8.20
2023-05-02T23:19:53.473Z,8.07
2023-05-02T23:21:20.934Z,8.03
2023-05-02T23:23:04.236Z,8.14
2023-05-02T23:27:31.017Z,7.99
2023-05-02T23:30:01.014Z,8.01
2023-05-02T23:32:43.357Z,8.01
2023-05-02T23:35:18.275Z,8.03
2023-05-02T23:37:55.346Z,8.04
2023-05-02T23:40:46.560Z,8.02
2023-05-02T23:43:24.216Z,8.00
2023-05-02T23:49:16.963Z,7.98
2023-05-02T23:52:06.083Z,7.98
2023-05-02T23:55:19.876Z,7.95
2023-05-02T23:57:49.738Z,7.91
